createdAt,value
2023-05-12T00:01:13.697Z,100162.13
2023-05-12T00:03:41.132Z,100159.09
2023-05-12T00:06:08.231Z,100160.70
2023-05-12T00:08:35.014Z,100159.48
2023-05-12T00:11:02.187Z,100156.08
2023-05-12T00:13:29.234Z,100156.42
2023-05-12T00:15:58.164Z,100161.27
2023-05-12T00:18:25.875Z,100160.67
2023-05-12T00:20:54.557Z,100159.95
2023-05-12T00:23:22.059Z,100163.90
2023-05-12T00:25:49.434Z,100163.04
2023-05-12T00:28:17.571Z,100165.90
2023-05-12T00:30:44.382Z,100166.39
2023-05-12T00:33:11.302Z,100169.14
2023-05-12T00:35:38.171Z,100165.68
2023-05-12T00:38:05.332Z,100167.92
2023-05-12T00:40:33.495Z,100169.92
2023-05-12T00:43:00.866Z,100172.27
2023-05-12T00:45:29.149Z,100171.59
2023-05-12T00:47:56.225Z,100171.45
2023-05-12T00:50:22.981Z,100174.15
2023-05-12T00:52:49.993Z,100177.35
2023-05-12T00:55:17.014Z,100179.52
2023-05-12T00:57:43.936Z,100184.29
2023-05-12T01:00:12.368Z,100186.52
2023-05-12T01:02:41.601Z,100182.91
2023-05-12T01:05:10.947Z,100180.57
2023-05-12T01:07:39.059Z,100177.69
2023-05-12T01:10:26.814Z,100178.07
2023-05-12T01:12:54.254Z,100179.92
2023-05-12T01:15:21.026Z,100178.20
2023-05-12T01:17:57.055Z,100178.91
2023-05-12T01:20:25.402Z,100182.40
2023-05-12T01:22:52.874Z,100182.50
2023-05-12T01:25:20.894Z,100183.34
2023-05-12T01:27:47.575Z,100185.35
2023-05-12T01:30:18.285Z,100184.92
2023-05-12T01:32:45.708Z,100190.23
2023-05-12T01:35:12.786Z,100187.00
2023-05-12T01:37:45.874Z,100181.02
2023-05-12T01:40:12.807Z,100179.55
2023-05-12T01:42:41.337Z,100181.69
2023-05-12T01:45:09.023Z,100180.95
2023-05-12T01:47:37.056Z,100179.40
2023-05-12T01:50:06.937Z,100180.52
2023-05-12T01:52:34.069Z,100179.63
2023-05-12T01:55:00.938Z,100179.33
2023-05-12T01:57:32.265Z,100179.65
2023-05-12T02:00:02.304Z,100178.93
2023-05-12T02:02:33.307Z,100180.05
2023-05-12T02:05:00.338Z,100183.19
2023-05-12T02:07:27.087Z,100187.23
2023-05-12T02:09:54.002Z,100188.44
2023-05-12T02:12:22.018Z,100187.58
2023-05-12T02:14:49.285Z,100194.85
2023-05-12T02:17:16.721Z,100193.81
2023-05-12T02:19:43.492Z,100196.90
2023-05-12T02:22:11.149Z,100200.25
2023-05-12T02:24:38.607Z,100192.98
2023-05-12T02:27:05.387Z,100190.47
2023-05-12T02:29:32.701Z,100189.61
2023-05-12T02:31:59.501Z,100189.15
2023-05-12T02:34:26.251Z,100187.63
2023-05-12T02:36:53.619Z,100187.61
2023-05-12T02:39:20.599Z,100183.30
2023-05-12T02:41:47.420Z,100163.02
2023-05-12T02:44:16.093Z,100159.28
2023-05-12T02:46:42.959Z,100167.05
2023-05-12T02:49:09.939Z,100173.98
2023-05-12T02:51:36.700Z,100169.52
2023-05-12T02:54:03.580Z,100170.39
2023-05-12T02:56:31.940Z,100179.65
2023-05-12T02:59:00.924Z,100184.70
2023-05-12T03:01:27.702Z,100181.98
2023-05-12T03:03:55.377Z,100181.55
2023-05-12T03:06:22.197Z,100183.74
2023-05-12T03:08:49.022Z,100183.70
2023-05-12T03:11:15.860Z,100182.05
2023-05-12T03:13:42.875Z,100183.80
2023-05-12T03:16:09.763Z,100187.04
2023-05-12T03:18:36.763Z,100189.72
2023-05-12T03:21:03.645Z,100193.67
2023-05-12T03:23:30.944Z,100197.40
2023-05-12T03:25:58.125Z,100207.01
2023-05-12T03:28:25.575Z,100213.30
2023-05-12T03:30:52.346Z,100210.77
2023-05-12T03:33:19.171Z,100199.91
2023-05-12T03:35:46.065Z,100198.21
2023-05-12T03:38:12.970Z,100197.35
2023-05-12T03:40:40.128Z,100195.71
2023-05-12T03:43:06.847Z,100206.17
2023-05-12T03:45:34.005Z,100206.19
2023-05-12T03:48:00.995Z,100210.08
2023-05-12T03:50:27.754Z,100214.80
2023-05-12T03:52:55.529Z,100213.25
2023-05-12T03:55:22.290Z,100214.86
2023-05-12T03:57:49.612Z,100216.79
2023-05-12T04:00:18.029Z,100221.38
2023-05-12T04:02:46.558Z,100218.90
2023-05-12T04:05:14.110Z,100218.84
2023-05-12T04:07:45.389Z,100218.80
2023-05-12T04:10:12.417Z,100215.54
2023-05-12T04:12:39.187Z,100218.89
2023-05-12T04:15:07.932Z,100216.53
2023-05-12T04:17:36.510Z,100226.84
2023-05-12T04:20:06.729Z,100232.05
2023-05-12T04:22:33.802Z,100234.17
2023-05-12T04:25:00.521Z,100239.41
2023-05-12T04:27:27.361Z,100241.89
2023-05-12T04:29:54.328Z,100244.09
2023-05-12T04:32:22.460Z,100249.63
2023-05-12T04:34:49.248Z,100248.74
2023-05-12T04:37:16.011Z,100247.47
2023-05-12T04:39:42.905Z,100244.84
2023-05-12T04:42:09.766Z,100248.94
2023-05-12T04:44:37.539Z,100249.64
2023-05-12T04:47:04.870Z,100249.48
2023-05-12T04:49:31.665Z,100253.02
2023-05-12T04:51:58.473Z,100251.31
2023-05-12T04:54:25.914Z,100254.36
2023-05-12T04:56:53.231Z,100252.34
2023-05-12T04:59:21.389Z,100259.00
2023-05-12T05:01:50.396Z,100261.73
2023-05-12T05:04:17.695Z,100263.54
2023-05-12T05:06:45.537Z,100265.13
2023-05-12T05:09:12.963Z,100270.17
2023-05-12T05:11:40.078Z,100270.73
2023-05-12T05:14:07.474Z,100270.67
2023-05-12T05:16:35.872Z,100272.48
2023-05-12T05:19:06.493Z,100269.97
2023-05-12T05:21:36.912Z,100272.48
2023-05-12T05:24:04.074Z,100273.23
2023-05-12T05:26:30.956Z,100278.77
2023-05-12T05:28:59.305Z,100279.75
2023-05-12T05:31:28.165Z,100283.42
2023-05-12T05:33:55.109Z,100285.43
2023-05-12T05:36:26.150Z,100281.59
2023-05-12T05:38:53.599Z,100283.51
2023-05-12T05:41:22.365Z,100281.05
2023-05-12T05:43:49.574Z,100279.41
2023-05-12T05:46:16.392Z,100282.36
2023-05-12T05:48:43.283Z,100280.41
2023-05-12T05:51:11.095Z,100280.86
2023-05-12T05:53:39.608Z,100284.63
2023-05-12T05:56:06.364Z,100282.97
2023-05-12T05:58:33.487Z,100281.05
2023-05-12T06:01:02.219Z,100278.09
2023-05-12T06:03:29.491Z,100278.09
2023-05-12T06:05:56.672Z,100281.19
2023-05-12T06:08:25.764Z,100269.17
2023-05-12T06:10:54.412Z,100263.57
2023-05-12T06:13:21.579Z,100262.63
2023-05-12T06:15:48.282Z,100261.36
2023-05-12T06:18:15.654Z,100261.75
2023-05-12T06:20:42.673Z,100260.34
2023-05-12T06:23:09.485Z,100263.14
2023-05-12T06:25:36.376Z,100263.50
2023-05-12T06:28:03.224Z,100265.13
2023-05-12T06:30:30.139Z,100266.92
2023-05-12T06:32:57.158Z,100267.80
2023-05-12T06:35:23.935Z,100275.84
2023-05-12T06:37:51.370Z,100275.54
2023-05-12T06:40:18.185Z,100277.58
2023-05-12T06:42:45.169Z,100284.73
2023-05-12T06:45:14.512Z,100283.31
2023-05-12T06:47:41.561Z,100284.20
2023-05-12T06:50:08.464Z,100282.02
2023-05-12T06:52:35.378Z,100280.06
2023-05-12T06:55:02.778Z,100281.95
2023-05-12T06:57:30.646Z,100278.21
2023-05-12T06:59:57.376Z,100279.30
2023-05-12T07:02:24.192Z,100275.05
2023-05-12T07:04:51.020Z,100274.89
2023-05-12T07:07:18.325Z,100276.84
2023-05-12T07:09:45.585Z,100273.52
2023-05-12T07:12:12.632Z,100272.05
2023-05-12T07:14:40.634Z,100274.36
2023-05-12T07:17:07.362Z,100279.31
2023-05-12T07:19:35.202Z,100279.74
2023-05-12T07:22:02.118Z,100281.60
2023-05-12T07:24:29.156Z,100276.14
2023-05-12T07:26:56.246Z,100276.69
2023-05-12T07:29:23.034Z,100278.98
2023-05-12T07:31:49.935Z,100281.60
2023-05-12T07:34:17.156Z,100279.79
2023-05-12T07:36:43.946Z,100275.80
2023-05-12T07:39:10.655Z,100280.70
2023-05-12T07:41:41.442Z,100275.76
2023-05-12T07:44:08.216Z,100276.73
2023-05-12T07:46:35.793Z,100277.37
2023-05-12T07:49:02.703Z,100281.05
2023-05-12T07:51:29.666Z,100277.39
2023-05-12T07:53:57.375Z,100279.14
2023-05-12T07:56:24.266Z,100277.96
2023-05-12T07:58:51.185Z,100272.34
2023-05-12T08:01:18.091Z,100269.79
2023-05-12T08:03:45.141Z,100268.70
2023-05-12T08:06:12.074Z,100269.58
2023-05-12T08:08:39.033Z,100270.45
2023-05-12T08:11:12.110Z,100267.63
2023-05-12T08:13:38.938Z,100266.73
2023-05-12T08:16:07.649Z,100270.08
2023-05-12T08:18:35.403Z,100265.67
2023-05-12T08:21:02.896Z,100271.47
2023-05-12T08:23:30.754Z,100268.48
2023-05-12T08:25:57.470Z,100267.02
2023-05-12T08:28:24.765Z,100266.02
2023-05-12T08:30:51.501Z,100260.33
2023-05-12T08:33:18.512Z,100262.54
2023-05-12T08:35:45.352Z,100260.41
2023-05-12T08:38:12.286Z,100261.77
2023-05-12T08:41:01.283Z,100256.64
2023-05-12T08:43:37.442Z,100258.96
2023-05-12T08:46:04.874Z,100253.79
2023-05-12T08:48:34.074Z,100253.39
2023-05-12T08:51:02.369Z,100252.65
2023-05-12T08:53:29.853Z,100252.07
2023-05-12T08:57:09.419Z,100250.77
2023-05-12T08:58:44.223Z,100244.59
2023-05-12T09:01:12.065Z,100246.10
2023-05-12T09:03:39.177Z,100246.01
2023-05-12T09:06:06.481Z,100244.95
2023-05-12T09:08:34.245Z,100248.83
2023-05-12T09:11:01.937Z,100247.52
2023-05-12T09:13:49.167Z,100247.94
2023-05-12T09:16:19.613Z,100247.14
2023-05-12T09:18:51.172Z,100247.77
2023-05-12T09:21:18.685Z,100245.26
2023-05-12T09:24:12.243Z,100235.64
2023-05-12T09:26:52.789Z,100233.68
2023-05-12T09:29:30.068Z,100235.73
2023-05-12T09:32:02.333Z,100230.46
2023-05-12T09:34:40.300Z,100226.67
2023-05-12T09:37:07.691Z,100225.02
2023-05-12T09:39:35.499Z,100230.58
2023-05-12T09:42:02.829Z,100228.06
2023-05-12T09:44:31.328Z,100222.64
2023-05-12T09:47:08.434Z,100229.52
2023-05-12T09:49:35.807Z,100220.86
2023-05-12T09:52:04.377Z,100219.91
2023-05-12T09:54:31.956Z,100221.41
2023-05-12T09:57:02.164Z,100218.11
2023-05-12T09:59:32.161Z,100217.33
2023-05-12T10:02:01.319Z,100217.83
2023-05-12T10:04:31.383Z,100215.58
2023-05-12T10:06:59.018Z,100214.47
2023-05-12T10:09:34.481Z,100215.09
2023-05-12T10:12:02.623Z,100214.26
2023-05-12T10:14:29.684Z,100209.17
2023-05-12T10:16:56.558Z,100199.98
2023-05-12T10:19:23.432Z,100205.35
2023-05-12T10:21:50.245Z,100203.80
2023-05-12T10:24:17.168Z,100194.31
2023-05-12T10:26:44.091Z,100198.02
2023-05-12T10:29:11.418Z,100193.91
2023-05-12T10:31:38.361Z,100192.41
2023-05-12T10:34:06.555Z,100192.59
2023-05-12T10:36:52.781Z,100199.64
2023-05-12T10:39:20.280Z,100199.17
2023-05-12T10:41:47.071Z,100191.98
2023-05-12T10:44:13.966Z,100188.27
2023-05-12T10:46:41.322Z,100188.48
2023-05-12T10:49:11.962Z,100186.30
2023-05-12T10:51:42.533Z,100180.10
2023-05-12T10:54:10.924Z,100187.06
2023-05-12T10:56:38.348Z,100183.59
2023-05-12T10:59:13.181Z,100175.75
2023-05-12T11:01:41.777Z,100172.08
2023-05-12T11:04:16.473Z,100168.29
2023-05-12T11:06:45.109Z,100171.34
2023-05-12T11:09:13.583Z,100178.14
2023-05-12T11:11:41.088Z,100175.21
2023-05-12T11:14:07.944Z,100178.91
2023-05-12T11:16:41.763Z,100177.55
2023-05-12T11:19:09.691Z,100182.53
2023-05-12T11:21:37.421Z,100180.80
2023-05-12T11:24:04.504Z,100173.69
2023-05-12T11:26:31.702Z,100180.88
2023-05-12T11:28:58.711Z,100181.48
2023-05-12T11:31:25.857Z,100180.85
2023-05-12T11:34:12.054Z,100176.31
2023-05-12T11:36:41.908Z,100167.64
2023-05-12T11:39:20.204Z,100167.10
2023-05-12T11:41:47.545Z,100170.89
2023-05-12T11:44:21.075Z,100165.95
2023-05-12T11:47:02.082Z,100161.77
2023-05-12T11:49:30.433Z,100156.65
2023-05-12T11:52:01.963Z,100161.34
2023-05-12T11:54:29.599Z,100168.88
2023-05-12T11:56:56.976Z,100167.74
2023-05-12T11:59:35.177Z,100161.73
2023-05-12T12:02:03.040Z,100157.40
2023-05-12T12:04:42.418Z,100158.32
2023-05-12T12:07:09.344Z,100155.19
2023-05-12T12:09:37.937Z,100152.96
2023-05-12T12:12:05.783Z,100151.16
2023-05-12T12:14:34.453Z,100149.02
2023-05-12T12:17:01.694Z,100143.14
2023-05-12T12:19:28.918Z,100141.90
2023-05-12T12:21:56.582Z,100141.40
2023-05-12T12:24:24.116Z,100144.10
2023-05-12T12:26:50.881Z,100142.33
2023-05-12T12:29:19.314Z,100138.69
2023-05-12T12:31:45.998Z,100133.81
2023-05-12T12:34:12.896Z,100129.04
2023-05-12T12:36:40.562Z,100126.42
2023-05-12T12:39:07.431Z,100123.58
2023-05-12T12:41:34.341Z,100123.63
2023-05-12T12:44:02.002Z,100125.10
2023-05-12T12:46:29.405Z,100119.02
2023-05-12T12:48:57.657Z,100118.06
2023-05-12T12:51:28.447Z,100119.54
2023-05-12T12:53:59.511Z,100116.54
2023-05-12T12:56:26.297Z,100112.95
2023-05-12T12:58:53.116Z,100113.83
2023-05-12T13:01:20.001Z,100114.05
2023-05-12T13:03:46.773Z,100111.20
2023-05-12T13:06:14.118Z,100111.48
2023-05-12T13:08:42.224Z,100107.40
2023-05-12T13:11:10.860Z,100105.98
2023-05-12T13:13:37.721Z,100107.45
2023-05-12T13:16:04.728Z,100121.06
2023-05-12T13:18:32.228Z,100117.09
2023-05-12T13:20:59.167Z,100115.44
2023-05-12T13:23:26.799Z,100114.17
2023-05-12T13:25:53.569Z,100112.27
2023-05-12T13:28:20.412Z,100104.56
2023-05-12T13:30:47.271Z,100103.91
2023-05-12T13:33:14.132Z,100103.33
2023-05-12T13:35:40.905Z,100102.84
2023-05-12T13:38:10.173Z,100103.12
2023-05-12T13:40:37.027Z,100102.29
2023-05-12T13:43:03.787Z,100100.82
2023-05-12T13:45:33.136Z,100102.16
2023-05-12T13:47:59.993Z,100099.70
2023-05-12T13:50:33.537Z,100095.03
2023-05-12T13:53:32.728Z,100089.29
2023-05-12T13:56:16.927Z,100091.69
2023-05-12T13:58:44.304Z,100091.28
2023-05-12T14:01:11.254Z,100088.91
2023-05-12T14:03:38.356Z,100087.73
2023-05-12T14:06:06.313Z,100088.06
2023-05-12T14:08:33.356Z,100092.44
2023-05-12T14:11:00.607Z,100085.60
2023-05-12T14:13:27.397Z,100086.03
2023-05-12T14:15:54.396Z,100090.05
2023-05-12T14:18:21.473Z,100085.73
2023-05-12T14:20:48.426Z,100084.48
2023-05-12T14:23:15.989Z,100090.90
2023-05-12T14:25:42.751Z,100088.09
2023-05-12T14:28:09.583Z,100084.13
2023-05-12T14:30:36.982Z,100092.40
2023-05-12T14:33:03.936Z,100089.88
2023-05-12T14:35:31.491Z,100086.27
2023-05-12T14:37:58.234Z,100085.45
2023-05-12T14:40:26.289Z,100083.71
2023-05-12T14:42:54.076Z,100086.09
2023-05-12T14:45:21.170Z,100088.10
2023-05-12T14:47:48.610Z,100088.47
2023-05-12T14:50:15.478Z,100089.88
2023-05-12T14:52:42.325Z,100087.34
2023-05-12T14:55:11.514Z,100092.80
2023-05-12T14:57:39.111Z,100092.83
2023-05-12T15:00:12.497Z,100091.92
2023-05-12T15:02:40.770Z,100090.77
2023-05-12T15:05:36.326Z,100086.11
2023-05-12T15:08:10.015Z,100089.69
2023-05-12T15:10:36.783Z,100088.38
2023-05-12T15:13:03.666Z,100091.59
2023-05-12T15:15:32.493Z,100086.81
2023-05-12T15:17:59.677Z,100083.58
2023-05-12T15:20:26.812Z,100079.15
2023-05-12T15:22:53.882Z,100075.89
2023-05-12T15:25:20.823Z,100073.09
2023-05-12T15:27:47.734Z,100070.14
2023-05-12T15:30:15.174Z,100069.59
2023-05-12T15:32:42.250Z,100068.96
2023-05-12T15:35:09.190Z,100069.82
2023-05-12T15:37:36.264Z,100071.51
2023-05-12T15:40:03.400Z,100065.98
2023-05-12T15:42:33.312Z,100067.66
2023-05-12T15:45:00.475Z,100065.34
2023-05-12T15:47:27.451Z,100067.11
2023-05-12T15:49:54.224Z,100071.17
2023-05-12T15:52:21.263Z,100073.58
2023-05-12T15:54:48.030Z,100086.35
2023-05-12T15:57:14.738Z,100084.52
2023-05-12T15:59:41.681Z,100070.65
2023-05-12T16:02:09.707Z,100065.40
2023-05-12T16:04:36.976Z,100074.33
2023-05-12T16:07:03.938Z,100067.59
2023-05-12T16:09:31.417Z,100067.24
2023-05-12T16:11:58.881Z,100064.03
2023-05-12T16:14:25.844Z,100065.32
2023-05-12T16:16:54.051Z,100063.02
2023-05-12T16:19:20.942Z,100066.52
2023-05-12T16:21:48.454Z,100074.17
2023-05-12T16:24:15.218Z,100074.16
2023-05-12T16:26:41.953Z,100067.87
2023-05-12T16:29:08.694Z,100063.91
2023-05-12T16:31:36.097Z,100062.43
2023-05-12T16:34:03.074Z,100060.24
2023-05-12T16:36:31.851Z,100059.10
2023-05-12T16:38:59.106Z,100068.29
2023-05-12T16:41:28.589Z,100073.77
2023-05-12T16:43:56.168Z,100072.60
2023-05-12T16:46:23.780Z,100071.00
2023-05-12T16:48:50.618Z,100077.58
2023-05-12T16:51:17.345Z,100077.21
2023-05-12T16:53:44.383Z,100081.05
2023-05-12T16:56:11.265Z,100077.95
2023-05-12T16:58:38.074Z,100080.05
2023-05-12T17:01:05.013Z,100081.16
2023-05-12T17:03:32.098Z,100082.20
2023-05-12T17:05:58.975Z,100085.30
2023-05-12T17:08:25.764Z,100088.23
2023-05-12T17:10:52.717Z,100090.02
2023-05-12T17:13:20.731Z,100087.68
2023-05-12T17:15:47.618Z,100087.63
2023-05-12T17:18:14.873Z,100091.70
2023-05-12T17:20:41.814Z,100092.41
2023-05-12T17:23:08.731Z,100088.67
2023-05-12T17:25:37.143Z,100091.23
2023-05-12T17:28:03.906Z,100095.52
2023-05-12T17:30:31.435Z,100091.41
2023-05-12T17:32:58.312Z,100092.21
2023-05-12T17:35:25.103Z,100093.01
2023-05-12T17:37:54.567Z,100097.55
2023-05-12T17:40:21.643Z,100101.03
2023-05-12T17:42:49.719Z,100096.70
2023-05-12T17:45:16.743Z,100099.46
2023-05-12T17:47:48.557Z,100102.88
2023-05-12T17:50:15.782Z,100104.05
2023-05-12T17:52:43.278Z,100105.76
2023-05-12T17:55:12.147Z,100107.15
2023-05-12T17:57:39.550Z,100106.11
2023-05-12T18:00:09.746Z,100110.38
2023-05-12T18:02:44.628Z,100109.40
2023-05-12T18:05:11.889Z,100111.66
2023-05-12T18:07:38.810Z,100118.09
2023-05-12T18:10:09.250Z,100117.70
2023-05-12T18:12:37.268Z,100114.56
2023-05-12T18:15:04.769Z,100118.33
2023-05-12T18:17:32.145Z,100125.48
2023-05-12T18:20:00.496Z,100123.44
2023-05-12T18:22:27.442Z,100122.34
2023-05-12T18:24:54.519Z,100120.91
2023-05-12T18:27:21.400Z,100123.58
2023-05-12T18:29:48.210Z,100128.91
2023-05-12T18:32:15.334Z,100129.02
2023-05-12T18:34:46.028Z,100127.06
2023-05-12T18:37:15.004Z,100126.48
2023-05-12T18:39:42.728Z,100127.77
2023-05-12T18:42:10.391Z,100129.76
2023-05-12T18:44:39.809Z,100123.83
2023-05-12T18:47:07.964Z,100125.80
2023-05-12T18:49:36.200Z,100121.31
2023-05-12T18:52:03.346Z,100122.73
2023-05-12T18:54:30.232Z,100123.49
2023-05-12T18:56:57.080Z,100123.23
2023-05-12T18:59:23.927Z,100122.09
2023-05-12T19:01:50.791Z,100124.94
2023-05-12T19:04:19.029Z,100123.81
2023-05-12T19:06:46.595Z,100121.61
2023-05-12T19:09:13.465Z,100122.03
2023-05-12T19:11:40.192Z,100126.01
2023-05-12T19:14:07.070Z,100125.48
2023-05-12T19:16:35.676Z,100125.45
2023-05-12T19:19:02.776Z,100122.13
2023-05-12T19:21:31.730Z,100122.04
2023-05-12T19:23:58.505Z,100122.49
2023-05-12T19:26:26.348Z,100120.37
2023-05-12T19:28:53.062Z,100121.50
2023-05-12T19:31:20.057Z,100118.91
2023-05-12T19:33:46.830Z,100120.91
2023-05-12T19:36:14.235Z,100115.30
2023-05-12T19:38:42.999Z,100119.25
2023-05-12T19:41:10.127Z,100120.17
2023-05-12T19:43:37.145Z,100119.46
2023-05-12T19:46:04.014Z,100122.42
2023-05-12T19:48:32.439Z,100119.12
2023-05-12T19:50:59.923Z,100120.96
2023-05-12T19:53:26.734Z,100122.73
2023-05-12T19:55:53.464Z,100121.16
2023-05-12T19:58:20.579Z,100115.64
2023-05-12T20:00:47.943Z,100118.73
2023-05-12T20:03:15.974Z,100115.70
2023-05-12T20:05:44.018Z,100118.03
2023-05-12T20:08:12.128Z,100117.32
2023-05-12T20:10:40.110Z,100117.77
2023-05-12T20:13:07.010Z,100113.85
2023-05-12T20:15:33.900Z,100109.95
2023-05-12T20:18:00.872Z,100109.05
2023-05-12T20:20:28.099Z,100112.93
2023-05-12T20:22:55.427Z,100113.78
2023-05-12T20:25:22.568Z,100118.08
2023-05-12T20:27:50.309Z,100121.50
2023-05-12T20:30:17.080Z,100130.53
2023-05-12T20:32:45.195Z,100130.25
2023-05-12T20:35:12.333Z,100133.52
2023-05-12T20:37:40.571Z,100137.94
2023-05-12T20:40:08.607Z,100137.95
2023-05-12T20:42:37.085Z,100137.45
2023-05-12T20:45:04.136Z,100139.60
2023-05-12T20:47:33.708Z,100143.32
2023-05-12T20:50:04.873Z,100144.99
2023-05-12T20:52:39.368Z,100140.31
2023-05-12T20:55:07.255Z,100140.86
2023-05-12T20:57:34.722Z,100142.41
2023-05-12T21:00:01.534Z,100145.76
2023-05-12T21:02:29.415Z,100139.27
2023-05-12T21:04:56.871Z,100143.77
2023-05-12T21:07:23.604Z,100143.17
2023-05-12T21:09:50.554Z,100137.44
2023-05-12T21:12:17.984Z,100142.05
2023-05-12T21:14:45.012Z,100142.58
2023-05-12T21:17:12.438Z,100140.15
2023-05-12T21:19:39.701Z,100144.55
2023-05-12T21:22:07.010Z,100145.90
2023-05-12T21:24:36.820Z,100147.00
2023-05-12T21:27:06.835Z,100148.38
2023-05-12T21:29:33.846Z,100145.20
2023-05-12T21:32:00.659Z,100142.63
2023-05-12T21:34:27.593Z,100141.73
2023-05-12T21:36:54.339Z,100142.59
2023-05-12T21:39:21.309Z,100139.81
2023-05-12T21:41:49.933Z,100142.87
2023-05-12T21:44:16.732Z,100142.63
2023-05-12T21:46:43.569Z,100146.42
2023-05-12T21:49:10.425Z,100142.45
2023-05-12T21:51:37.110Z,100144.42
2023-05-12T21:54:03.877Z,100144.63
2023-05-12T21:56:30.808Z,100143.77
2023-05-12T21:58:57.630Z,100140.54
2023-05-12T22:01:24.463Z,100141.52
2023-05-12T22:03:51.333Z,100133.58
2023-05-12T22:06:18.530Z,100138.38
2023-05-12T22:08:45.451Z,100135.74
2023-05-12T22:11:12.362Z,100138.92
2023-05-12T22:13:39.159Z,100135.67
2023-05-12T22:16:06.201Z,100134.40
2023-05-12T22:18:34.555Z,100137.36
2023-05-12T22:21:01.322Z,100136.16
2023-05-12T22:23:28.918Z,100143.64
2023-05-12T22:25:55.967Z,100139.56
2023-05-12T22:28:22.906Z,100136.67
2023-05-12T22:30:50.820Z,100130.59
2023-05-12T22:33:17.678Z,100136.09
2023-05-12T22:35:44.700Z,100128.25
2023-05-12T22:38:12.106Z,100124.48
2023-05-12T22:40:42.342Z,100118.64
2023-05-12T22:43:09.170Z,100120.56
2023-05-12T22:45:35.986Z,100121.30
2023-05-12T22:48:02.957Z,100122.02
2023-05-12T22:50:29.887Z,100127.75
2023-05-12T22:52:57.505Z,100122.29
2023-05-12T22:55:29.967Z,100119.43
2023-05-12T22:57:57.504Z,100112.66
2023-05-12T23:00:24.267Z,100114.84
2023-05-12T23:02:51.345Z,100114.39
2023-05-12T23:05:18.369Z,100122.35
2023-05-12T23:07:47.300Z,100118.98
2023-05-12T23:10:14.376Z,100122.48
2023-05-12T23:12:41.742Z,100123.67
2023-05-12T23:15:08.732Z,100125.58
2023-05-12T23:17:35.801Z,100122.98
2023-05-12T23:20:02.799Z,100117.53
2023-05-12T23:22:29.980Z,100119.45
2023-05-12T23:24:57.722Z,100114.26
2023-05-12T23:27:25.373Z,100107.71
2023-05-12T23:29:52.698Z,100106.09
2023-05-12T23:32:19.803Z,100100.84
2023-05-12T23:34:46.630Z,100108.80
2023-05-12T23:37:13.461Z,100110.25
2023-05-12T23:39:40.937Z,100111.21
2023-05-12T23:42:07.744Z,100112.09
2023-05-12T23:44:34.476Z,100112.50
2023-05-12T23:47:01.556Z,100110.23
2023-05-12T23:49:28.452Z,100107.60
2023-05-12T23:51:55.464Z,100107.25
2023-05-12T23:54:22.239Z,100104.74
2023-05-12T23:56:48.989Z,100110.40
2023-05-12T23:59:15.946Z,100111.74
